createdAt,value
2017-08-16T00:01:37.905Z,99975.80
2017-08-16T00:04:05.857Z,99980.16
2017-08-16T00:06:33.791Z,99986.69
2017-08-16T00:09:01.797Z,99976.59
2017-08-16T00:11:29.776Z,99977.86
2017-08-16T00:13:57.427Z,99981.69
2017-08-16T00:16:25.234Z,99982.54
2017-08-16T00:18:52.816Z,99982.54
2017-08-16T00:21:20.505Z,99989.45
2017-08-16T00:23:48.178Z,99983.05
2017-08-16T00:26:15.840Z,99984.70
2017-08-16T00:28:43.891Z,99982.71
2017-08-16T00:31:11.837Z,99982.86
2017-08-16T00:33:39.801Z,99985.04
2017-08-16T00:36:07.547Z,99984.60
2017-08-16T00:38:35.173Z,99984.22
2017-08-16T00:41:02.822Z,99979.75
2017-08-16T00:43:30.600Z,99978.13
2017-08-16T00:45:58.412Z,99969.82
2017-08-16T00:48:26.381Z,99970.36
2017-08-16T00:50:54.465Z,99964.79
2017-08-16T00:53:22.375Z,99973.65
2017-08-16T00:55:50.081Z,99968.48
2017-08-16T00:58:17.973Z,99970.67
2017-08-16T01:00:45.761Z,99977.75
2017-08-16T01:03:13.606Z,99974.36
2017-08-16T01:05:41.299Z,99975.59
2017-08-16T01:08:09.013Z,99981.56
2017-08-16T01:10:37.034Z,99984.95
2017-08-16T01:13:05.003Z,99986.61
2017-08-16T01:15:32.768Z,99982.80
2017-08-16T01:18:00.635Z,99980.05
2017-08-16T01:20:28.712Z,99976.66
2017-08-16T01:22:56.414Z,99981.28
2017-08-16T01:25:24.440Z,99970.25
2017-08-16T01:27:52.153Z,99968.59
2017-08-16T01:30:20.169Z,99965.20
2017-08-16T01:32:47.831Z,99966.84
2017-08-16T01:35:15.904Z,99965.36
2017-08-16T01:37:43.667Z,99975.01
2017-08-16T01:40:11.641Z,99971.05
2017-08-16T01:42:39.555Z,99966.27
2017-08-16T01:45:07.362Z,99968.06
2017-08-16T01:47:35.036Z,99963.98
2017-08-16T01:50:02.691Z,99972.28
2017-08-16T01:52:30.524Z,99970.89
2017-08-16T01:54:58.342Z,99963.70
2017-08-16T01:57:26.300Z,99960.97
2017-08-16T01:59:53.949Z,99960.98
2017-08-16T02:02:21.611Z,99960.83
2017-08-16T02:04:49.458Z,99968.59
2017-08-16T02:07:17.358Z,99965.74
2017-08-16T02:09:45.016Z,99968.71
2017-08-16T02:12:13.092Z,99971.30
2017-08-16T02:14:41.003Z,99971.60
2017-08-16T02:17:09.843Z,99972.41
2017-08-16T02:19:37.561Z,99973.79
2017-08-16T02:22:05.522Z,99971.34
2017-08-16T02:24:33.242Z,99972.70
2017-08-16T02:27:01.311Z,99968.22
2017-08-16T02:29:28.963Z,99973.66
2017-08-16T02:31:56.629Z,99976.80
2017-08-16T02:34:24.280Z,99978.56
2017-08-16T02:36:51.963Z,99976.67
2017-08-16T02:39:20.098Z,99981.16
2017-08-16T02:41:47.916Z,99985.64
2017-08-16T02:44:15.654Z,99982.11
2017-08-16T02:46:43.620Z,99982.39
2017-08-16T02:49:11.300Z,99979.38
2017-08-16T02:51:39.283Z,99984.41
2017-08-16T02:54:07.222Z,99986.61
2017-08-16T02:56:35.265Z,99987.25
2017-08-16T02:59:02.988Z,99991.61
2017-08-16T03:01:30.701Z,99994.44
2017-08-16T03:03:58.665Z,99993.36
2017-08-16T03:06:26.354Z,99993.63
2017-08-16T03:08:54.027Z,99991.97
2017-08-16T03:11:22.100Z,99991.56
2017-08-16T03:13:49.930Z,99988.14
2017-08-16T03:16:17.673Z,99987.33
2017-08-16T03:18:45.667Z,99985.58
2017-08-16T03:21:13.614Z,99993.44
2017-08-16T03:23:41.580Z,99995.61
2017-08-16T03:26:09.444Z,99993.84
2017-08-16T03:28:37.066Z,99995.04
2017-08-16T03:31:05.001Z,99997.37
2017-08-16T03:33:32.993Z,100001.63
2017-08-16T03:36:00.937Z,99993.73
2017-08-16T03:38:28.839Z,99989.39
2017-08-16T03:40:56.912Z,99988.75
2017-08-16T03:43:24.615Z,99987.14
2017-08-16T03:45:52.329Z,99996.25
2017-08-16T03:48:20.308Z,99988.77
2017-08-16T03:50:48.140Z,99991.38
2017-08-16T03:53:16.007Z,99982.66
2017-08-16T03:55:43.750Z,99986.06
2017-08-16T03:58:11.776Z,99984.74
2017-08-16T04:00:39.485Z,99986.63
2017-08-16T04:03:07.297Z,99984.58
2017-08-16T04:05:35.042Z,99985.70
2017-08-16T04:08:03.033Z,99981.06
2017-08-16T04:10:30.903Z,99975.52
2017-08-16T04:12:58.772Z,99986.36
2017-08-16T04:15:26.483Z,99977.98
2017-08-16T04:17:54.353Z,99984.05
2017-08-16T04:20:22.317Z,99989.61
2017-08-16T04:22:50.239Z,99990.38
2017-08-16T04:25:18.311Z,99985.34
2017-08-16T04:27:46.145Z,99988.08
2017-08-16T04:30:13.840Z,99990.05
2017-08-16T04:32:41.707Z,99982.19
2017-08-16T04:35:09.548Z,99986.69
2017-08-16T04:37:37.339Z,99984.63
2017-08-16T04:40:05.306Z,99983.70
2017-08-16T04:42:33.020Z,99981.64
2017-08-16T04:45:01.316Z,99987.50
2017-08-16T04:47:29.105Z,99986.73
2017-08-16T04:49:56.826Z,99988.64
2017-08-16T04:52:24.641Z,99989.92
2017-08-16T04:54:52.506Z,99985.95
2017-08-16T04:57:20.356Z,99988.64
2017-08-16T04:59:48.218Z,99983.11
2017-08-16T05:02:16.110Z,99987.19
2017-08-16T05:04:43.828Z,99983.28
2017-08-16T05:07:11.794Z,99984.64
2017-08-16T05:09:39.615Z,99980.25
2017-08-16T05:12:07.576Z,99982.23
2017-08-16T05:14:35.420Z,99981.68
2017-08-16T05:17:03.517Z,99981.02
2017-08-16T05:19:31.355Z,99986.63
2017-08-16T05:21:59.222Z,99982.05
2017-08-16T05:24:27.114Z,99979.89
2017-08-16T05:26:55.188Z,99989.06
2017-08-16T05:29:23.049Z,99977.90
2017-08-16T05:31:51.125Z,99977.65
2017-08-16T05:34:18.960Z,99984.61
2017-08-16T05:36:46.827Z,99987.08
2017-08-16T05:39:14.892Z,99979.24
2017-08-16T05:41:42.587Z,99984.06
2017-08-16T05:44:10.255Z,99982.98
2017-08-16T05:46:37.946Z,99978.12
2017-08-16T05:49:05.763Z,99978.77
2017-08-16T05:51:33.650Z,99976.13
2017-08-16T05:54:01.649Z,99974.83
2017-08-16T05:56:29.590Z,99975.56
2017-08-16T05:58:57.427Z,99974.63
2017-08-16T06:01:25.528Z,99977.23
2017-08-16T06:03:53.246Z,99966.61
2017-08-16T06:06:21.205Z,99968.53
2017-08-16T06:08:49.077Z,99969.77
2017-08-16T06:11:16.996Z,99968.92
2017-08-16T06:13:44.714Z,99970.84
2017-08-16T06:16:12.515Z,99963.95
2017-08-16T06:18:40.473Z,99964.15
2017-08-16T06:21:08.460Z,99974.51
2017-08-16T06:23:36.535Z,99971.34
2017-08-16T06:26:04.250Z,99971.36
2017-08-16T06:28:32.269Z,99967.17
2017-08-16T06:31:00.307Z,99968.17
2017-08-16T06:33:28.001Z,99967.95
2017-08-16T06:35:55.664Z,99967.72
2017-08-16T06:38:23.531Z,99978.97
2017-08-16T06:40:51.374Z,99977.89
2017-08-16T06:43:19.121Z,99986.09
2017-08-16T06:45:47.110Z,99984.59
2017-08-16T06:48:14.791Z,99983.64
2017-08-16T06:50:42.498Z,99977.28
2017-08-16T06:53:10.526Z,99989.86
2017-08-16T06:55:38.457Z,99990.80
2017-08-16T06:58:06.448Z,99983.57
2017-08-16T07:00:34.190Z,99976.94
2017-08-16T07:03:01.997Z,99976.75
2017-08-16T07:05:30.050Z,99977.64
2017-08-16T07:07:57.932Z,99974.52
2017-08-16T07:10:25.784Z,99973.23
2017-08-16T07:12:53.627Z,99966.37
2017-08-16T07:15:21.595Z,99971.81
2017-08-16T07:17:49.437Z,99971.52
2017-08-16T07:20:17.470Z,99957.88
2017-08-16T07:22:45.397Z,99954.10
2017-08-16T07:25:13.205Z,99952.53
2017-08-16T07:27:41.278Z,99950.55
2017-08-16T07:30:09.348Z,99959.03
2017-08-16T07:32:37.069Z,99969.39
2017-08-16T07:35:04.876Z,99963.37
2017-08-16T07:37:32.949Z,99956.25
2017-08-16T07:40:00.610Z,99949.29
2017-08-16T07:42:28.337Z,99959.23
2017-08-16T07:44:56.327Z,99953.26
2017-08-16T07:47:24.195Z,99956.42
2017-08-16T07:49:52.079Z,99953.35
2017-08-16T07:52:20.006Z,99951.39
2017-08-16T07:54:48.019Z,99944.95
2017-08-16T07:57:15.814Z,99934.75
2017-08-16T07:59:43.540Z,99935.15
2017-08-16T08:02:11.400Z,99931.48
2017-08-16T08:04:39.279Z,99927.79
2017-08-16T08:07:07.144Z,99930.58
2017-08-16T08:09:34.852Z,99932.06
2017-08-16T08:12:02.878Z,99915.72
2017-08-16T08:14:30.686Z,99911.37
2017-08-16T08:16:58.530Z,99917.47
2017-08-16T08:19:26.479Z,99900.46
2017-08-16T08:21:54.552Z,99904.50
2017-08-16T08:24:22.482Z,99912.72
2017-08-16T08:26:50.343Z,99907.17
2017-08-16T08:29:18.357Z,99906.92
2017-08-16T08:31:46.207Z,99906.09
2017-08-16T08:34:14.090Z,99910.88
2017-08-16T08:36:41.752Z,99907.13
2017-08-16T08:39:09.619Z,99904.50
2017-08-16T08:41:37.487Z,99902.63
2017-08-16T08:44:05.559Z,99900.66
2017-08-16T08:46:33.408Z,99901.58
2017-08-16T08:49:01.272Z,99899.81
2017-08-16T08:51:28.948Z,99895.88
2017-08-16T08:53:56.787Z,99890.05
2017-08-16T08:56:24.687Z,99897.63
2017-08-16T08:58:52.722Z,99882.82
2017-08-16T09:01:20.465Z,99889.98
2017-08-16T09:03:48.454Z,99894.81
2017-08-16T09:06:16.225Z,99888.12
2017-08-16T09:08:44.069Z,99880.80
2017-08-16T09:11:11.951Z,99880.50
2017-08-16T09:13:39.926Z,99884.65
2017-08-16T09:16:07.646Z,99878.77
2017-08-16T09:18:35.387Z,99876.92
2017-08-16T09:21:03.355Z,99867.95
2017-08-16T09:23:31.194Z,99863.63
2017-08-16T09:25:59.191Z,99866.70
2017-08-16T09:28:26.956Z,99862.77
2017-08-16T09:30:54.617Z,99858.79
2017-08-16T09:33:22.276Z,99863.30
2017-08-16T09:35:50.131Z,99863.02
2017-08-16T09:38:18.011Z,99866.20
2017-08-16T09:40:45.669Z,99864.08
2017-08-16T09:43:13.540Z,99870.61
2017-08-16T09:45:41.408Z,99866.61
2017-08-16T09:48:09.121Z,99863.99
2017-08-16T09:50:37.145Z,99863.87
2017-08-16T09:53:04.789Z,99868.61
2017-08-16T09:55:32.673Z,99875.00
2017-08-16T09:58:00.690Z,99864.19
2017-08-16T10:00:28.611Z,99873.09
2017-08-16T10:02:56.599Z,99885.53
2017-08-16T10:05:24.551Z,99863.39
2017-08-16T10:07:52.205Z,99859.80
2017-08-16T10:10:20.050Z,99854.63
2017-08-16T10:12:47.814Z,99860.88
2017-08-16T10:15:15.657Z,99844.09
2017-08-16T10:17:43.629Z,99858.42
2017-08-16T10:20:11.493Z,99848.84
2017-08-16T10:22:39.100Z,99841.09
2017-08-16T10:25:06.737Z,99847.52
2017-08-16T10:27:34.533Z,99836.36
2017-08-16T10:30:02.181Z,99830.53
2017-08-16T10:32:29.764Z,99834.06
2017-08-16T10:34:57.674Z,99822.47
2017-08-16T10:37:25.385Z,99834.69
2017-08-16T10:39:53.229Z,99818.73
2017-08-16T10:42:20.896Z,99818.61
2017-08-16T10:44:48.495Z,99814.03
2017-08-16T10:47:16.087Z,99820.30
2017-08-16T10:49:44.075Z,99811.88
2017-08-16T10:52:11.744Z,99817.85
2017-08-16T10:54:39.620Z,99811.67
2017-08-16T10:57:07.703Z,99810.72
2017-08-16T10:59:37.493Z,99808.05
2017-08-16T11:02:07.751Z,99818.06
2017-08-16T11:04:37.767Z,99806.67
2017-08-16T11:07:08.029Z,99792.93
2017-08-16T11:09:36.034Z,99794.50
2017-08-16T11:12:03.684Z,99800.73
2017-08-16T11:14:31.580Z,99796.44
2017-08-16T11:16:59.418Z,99793.88
2017-08-16T11:19:27.106Z,99795.84
2017-08-16T11:21:55.128Z,99789.12
2017-08-16T11:24:23.019Z,99790.73
2017-08-16T11:26:50.702Z,99778.68
2017-08-16T11:29:18.564Z,99766.89
2017-08-16T11:31:46.238Z,99786.70
2017-08-16T11:34:14.304Z,99776.23
2017-08-16T11:36:42.030Z,99774.30
2017-08-16T11:39:09.877Z,99771.88
2017-08-16T11:41:37.533Z,99760.80
2017-08-16T11:44:05.117Z,99769.45
2017-08-16T11:46:32.717Z,99763.67
2017-08-16T11:49:00.380Z,99761.68
2017-08-16T11:51:28.065Z,99757.87
2017-08-16T11:53:56.011Z,99758.70
2017-08-16T11:56:23.885Z,99757.47
2017-08-16T11:58:51.540Z,99753.02
2017-08-16T12:01:19.260Z,99756.38
2017-08-16T12:03:47.277Z,99746.90
2017-08-16T12:06:14.935Z,99745.97
2017-08-16T12:08:42.784Z,99735.71
2017-08-16T12:11:10.463Z,99732.07
2017-08-16T12:13:38.312Z,99743.47
2017-08-16T12:16:05.894Z,99734.25
2017-08-16T12:18:33.660Z,99733.05
2017-08-16T12:21:01.250Z,99738.59
2017-08-16T12:23:28.985Z,99736.05
2017-08-16T12:25:56.708Z,99732.23
2017-08-16T12:28:24.667Z,99729.56
2017-08-16T12:30:52.584Z,99741.66
2017-08-16T12:33:20.654Z,99726.19
2017-08-16T12:35:48.319Z,99722.66
2017-08-16T12:38:16.187Z,99727.50
2017-08-16T12:40:43.846Z,99723.73
2017-08-16T12:43:11.555Z,99720.91
2017-08-16T12:45:39.422Z,99720.72
2017-08-16T12:48:07.314Z,99721.16
2017-08-16T12:50:34.893Z,99711.48
2017-08-16T12:55:35.342Z,99713.38
2017-08-16T12:58:03.382Z,99722.36
2017-08-16T13:00:31.076Z,99730.28
2017-08-16T13:02:59.154Z,99720.20
2017-08-16T13:05:26.884Z,99718.53
2017-08-16T13:07:54.876Z,99723.22
2017-08-16T13:10:22.519Z,99720.11
2017-08-16T13:12:50.213Z,99717.80
2017-08-16T13:15:17.870Z,99710.53
2017-08-16T13:17:45.945Z,99704.00
2017-08-16T13:20:13.663Z,99702.80
2017-08-16T13:22:41.629Z,99702.00
2017-08-16T13:25:09.444Z,99698.78
2017-08-16T13:27:37.194Z,99691.91
2017-08-16T13:30:04.804Z,99697.98
2017-08-16T13:32:32.800Z,99696.44
2017-08-16T13:35:00.767Z,99686.69
2017-08-16T13:37:28.675Z,99679.89
2017-08-16T13:39:56.677Z,99689.78
2017-08-16T13:42:24.514Z,99686.33
2017-08-16T13:44:52.336Z,99688.02
2017-08-16T13:47:20.327Z,99694.39
2017-08-16T13:49:48.008Z,99686.88
2017-08-16T13:52:15.657Z,99686.97
2017-08-16T13:54:43.380Z,99687.13
2017-08-16T13:57:10.990Z,99685.62
2017-08-16T13:59:38.656Z,99687.64
2017-08-16T14:02:06.305Z,99684.05
2017-08-16T14:04:34.390Z,99683.46
2017-08-16T14:07:02.146Z,99681.30
2017-08-16T14:09:29.981Z,99688.61
2017-08-16T14:11:57.771Z,99685.64
2017-08-16T14:14:25.450Z,99691.05
2017-08-16T14:16:53.312Z,99684.91
2017-08-16T14:19:20.980Z,99691.82
2017-08-16T14:21:48.917Z,99686.49
2017-08-16T14:24:16.638Z,99689.49
2017-08-16T14:26:44.433Z,99689.46
2017-08-16T14:29:12.446Z,99688.94
2017-08-16T14:31:40.306Z,99688.28
2017-08-16T14:34:08.166Z,99683.70
2017-08-16T14:36:36.047Z,99681.63
2017-08-16T14:39:03.907Z,99686.48
2017-08-16T14:41:31.760Z,99678.31
2017-08-16T14:43:59.651Z,99679.39
2017-08-16T14:46:27.645Z,99679.84
2017-08-16T14:48:55.484Z,99680.44
2017-08-16T14:51:23.360Z,99680.48
2017-08-16T14:53:51.271Z,99680.56
2017-08-16T14:56:18.981Z,99674.82
2017-08-16T14:58:46.709Z,99671.94
2017-08-16T15:01:14.698Z,99673.19
2017-08-16T15:03:42.689Z,99665.68
2017-08-16T15:06:10.510Z,99673.66
2017-08-16T15:08:38.310Z,99674.01
2017-08-16T15:11:06.183Z,99666.86
2017-08-16T15:13:33.910Z,99673.49
2017-08-16T15:16:01.901Z,99669.52
2017-08-16T15:18:29.694Z,99671.66
2017-08-16T15:20:57.644Z,99671.77
2017-08-16T15:23:25.493Z,99673.80
2017-08-16T15:25:53.159Z,99681.66
2017-08-16T15:28:21.009Z,99675.78
2017-08-16T15:30:48.707Z,99678.50
2017-08-16T15:33:17.787Z,99675.00
2017-08-16T15:35:45.537Z,99670.27
2017-08-16T15:38:13.186Z,99672.39
2017-08-16T15:40:40.845Z,99670.87
2017-08-16T15:43:08.454Z,99676.94
2017-08-16T15:45:36.108Z,99678.83
2017-08-16T15:48:03.707Z,99683.70
2017-08-16T15:50:31.638Z,99681.72
2017-08-16T15:52:59.295Z,99688.13
2017-08-16T15:55:26.917Z,99680.00
2017-08-16T15:57:54.514Z,99682.55
2017-08-16T16:00:22.207Z,99684.67
2017-08-16T16:02:49.789Z,99691.22
2017-08-16T16:05:17.390Z,99686.45
2017-08-16T16:07:45.202Z,99684.61
2017-08-16T16:10:12.993Z,99684.11
2017-08-16T16:12:40.582Z,99683.61
2017-08-16T16:15:08.251Z,99686.72
2017-08-16T16:17:35.863Z,99684.25
2017-08-16T16:20:03.485Z,99682.14
2017-08-16T16:22:31.171Z,99689.88
2017-08-16T16:24:58.777Z,99695.88
2017-08-16T16:27:26.366Z,99699.30
2017-08-16T16:29:54.030Z,99703.66
2017-08-16T16:32:21.637Z,99700.11
2017-08-16T16:34:49.251Z,99701.15
2017-08-16T16:37:16.943Z,99706.45
2017-08-16T16:39:44.657Z,99704.28
2017-08-16T16:42:12.528Z,99703.03
2017-08-16T16:44:40.245Z,99708.81
2017-08-16T16:47:07.865Z,99706.87
2017-08-16T16:49:35.593Z,99708.98
2017-08-16T16:52:03.502Z,99713.31
2017-08-16T16:54:32.044Z,99715.50
2017-08-16T16:56:59.631Z,99726.80
2017-08-16T16:59:27.319Z,99729.20
2017-08-16T17:01:54.906Z,99725.56
2017-08-16T17:04:22.612Z,99723.34
2017-08-16T17:06:50.276Z,99729.00
2017-08-16T17:09:17.899Z,99726.39
2017-08-16T17:11:45.497Z,99727.59
2017-08-16T17:14:13.168Z,99737.39
2017-08-16T17:16:40.755Z,99737.41
2017-08-16T17:19:08.369Z,99738.61
2017-08-16T17:21:36.018Z,99742.53
2017-08-16T17:24:03.639Z,99747.77
2017-08-16T17:26:31.286Z,99746.37
2017-08-16T17:28:58.947Z,99744.09
2017-08-16T17:31:26.554Z,99750.77
2017-08-16T17:33:54.131Z,99755.70
2017-08-16T17:36:21.787Z,99762.02
2017-08-16T17:38:49.491Z,99762.95
2017-08-16T17:41:17.127Z,99762.08
2017-08-16T17:43:44.791Z,99767.59
2017-08-16T17:46:12.410Z,99768.46
2017-08-16T17:48:40.032Z,99769.11
2017-08-16T17:51:08.108Z,99769.20
2017-08-16T17:53:35.767Z,99773.27
2017-08-16T17:56:03.600Z,99777.15
2017-08-16T17:58:31.289Z,99772.78
2017-08-16T18:00:58.896Z,99779.64
2017-08-16T18:03:26.679Z,99785.72
2017-08-16T18:05:54.469Z,99784.51
2017-08-16T18:08:22.180Z,99787.90
2017-08-16T18:10:50.120Z,99792.69
2017-08-16T18:13:17.889Z,99792.67
2017-08-16T18:15:45.536Z,99794.87
2017-08-16T18:18:13.256Z,99795.91
2017-08-16T18:20:41.061Z,99797.20
2017-08-16T18:23:08.720Z,99802.62
2017-08-16T18:25:36.577Z,99807.02
2017-08-16T18:28:04.264Z,99813.56
2017-08-16T18:30:32.333Z,99810.80
2017-08-16T18:33:00.178Z,99809.50
2017-08-16T18:35:27.863Z,99812.65
2017-08-16T18:37:55.519Z,99816.27
2017-08-16T18:40:23.391Z,99820.09
2017-08-16T18:42:51.254Z,99820.48
2017-08-16T18:45:19.136Z,99817.95
2017-08-16T18:47:47.177Z,99816.38
2017-08-16T18:50:15.127Z,99811.91
2017-08-16T18:52:43.125Z,99816.14
2017-08-16T18:55:11.294Z,99820.84
2017-08-16T18:57:39.946Z,99823.93
2017-08-16T19:00:08.461Z,99822.12
2017-08-16T19:02:37.086Z,99819.91
2017-08-16T19:05:05.804Z,99817.35
2017-08-16T19:07:34.677Z,99814.28
2017-08-16T19:10:03.451Z,99821.53
2017-08-16T19:12:32.478Z,99815.59
2017-08-16T19:15:01.864Z,99819.38
2017-08-16T19:17:30.841Z,99821.09
2017-08-16T19:19:59.915Z,99816.70
2017-08-16T19:22:28.638Z,99816.32
2017-08-16T19:24:57.505Z,99811.64
2017-08-16T19:27:26.284Z,99812.19
2017-08-16T19:29:55.165Z,99811.91
2017-08-16T19:32:24.111Z,99810.64
2017-08-16T19:34:53.319Z,99811.77
2017-08-16T19:37:21.985Z,99814.38
2017-08-16T19:39:50.679Z,99808.97
2017-08-16T19:42:19.707Z,99815.56
2017-08-16T19:44:48.163Z,99817.75
2017-08-16T19:47:16.311Z,99808.41
2017-08-16T19:49:44.879Z,99807.70
2017-08-16T19:52:13.245Z,99808.10
2017-08-16T19:54:41.622Z,99809.38
2017-08-16T19:57:09.705Z,99809.78
2017-08-16T19:59:38.321Z,99809.63
2017-08-16T20:02:06.355Z,99812.92
2017-08-16T20:04:34.392Z,99809.47
2017-08-16T20:07:02.287Z,99809.78
2017-08-16T20:09:30.163Z,99811.61
2017-08-16T20:11:58.671Z,99815.31
2017-08-16T20:14:26.565Z,99814.87
2017-08-16T20:16:54.588Z,99816.38
2017-08-16T20:19:22.446Z,99815.09
2017-08-16T20:21:50.288Z,99813.35
2017-08-16T20:24:18.232Z,99810.50
2017-08-16T20:26:46.218Z,99809.61
2017-08-16T20:29:13.961Z,99807.34
2017-08-16T20:31:41.979Z,99818.08
2017-08-16T20:34:09.856Z,99815.99
2017-08-16T20:36:37.562Z,99819.25
2017-08-16T20:39:05.531Z,99818.23
2017-08-16T20:41:33.234Z,99822.23
2017-08-16T20:44:01.219Z,99823.39
2017-08-16T20:46:28.976Z,99820.09
2017-08-16T20:48:57.019Z,99828.63
2017-08-16T20:51:24.770Z,99820.25
2017-08-16T20:53:52.788Z,99823.13
2017-08-16T20:56:20.805Z,99826.72
2017-08-16T20:58:48.726Z,99825.16
2017-08-16T21:01:16.389Z,99820.80
2017-08-16T21:03:44.249Z,99822.77
2017-08-16T21:06:11.918Z,99825.76
2017-08-16T21:08:39.763Z,99827.99
2017-08-16T21:11:07.801Z,99828.64
2017-08-16T21:13:35.512Z,99830.36
2017-08-16T21:16:03.413Z,99829.36
2017-08-16T21:18:31.251Z,99826.45
2017-08-16T21:20:58.909Z,99824.75
2017-08-16T21:23:26.782Z,99824.44
2017-08-16T21:25:54.708Z,99823.78
2017-08-16T21:28:22.509Z,99818.09
2017-08-16T21:30:50.239Z,99828.30
2017-08-16T21:33:18.030Z,99823.84
2017-08-16T21:35:45.778Z,99828.19
2017-08-16T21:38:13.741Z,99827.48
2017-08-16T21:40:41.597Z,99831.37
2017-08-16T21:43:09.508Z,99827.94
2017-08-16T21:45:37.343Z,99818.98
2017-08-16T21:48:05.089Z,99820.31
2017-08-16T21:50:33.005Z,99825.83
2017-08-16T21:53:00.981Z,99828.00
2017-08-16T21:55:29.007Z,99825.02
2017-08-16T21:57:56.880Z,99826.98
2017-08-16T22:00:24.572Z,99821.01
2017-08-16T22:02:52.613Z,99823.92
2017-08-16T22:05:20.310Z,99829.05
2017-08-16T22:07:48.120Z,99826.80
2017-08-16T22:10:15.835Z,99823.95
2017-08-16T22:12:43.506Z,99829.77
2017-08-16T22:15:11.165Z,99822.73
2017-08-16T22:17:39.192Z,99825.72
2017-08-16T22:20:06.929Z,99817.31
2017-08-16T22:22:34.876Z,99827.44
2017-08-16T22:25:02.634Z,99818.61
2017-08-16T22:27:30.361Z,99824.88
2017-08-16T22:29:57.969Z,99831.59
2017-08-16T22:32:26.030Z,99822.23
2017-08-16T22:34:53.884Z,99830.69
2017-08-16T22:37:21.726Z,99822.55
2017-08-16T22:39:49.474Z,99830.80
2017-08-16T22:42:17.338Z,99832.72
2017-08-16T22:44:45.165Z,99830.93
2017-08-16T22:47:12.809Z,99833.92
2017-08-16T22:49:40.542Z,99838.33
2017-08-16T22:52:08.505Z,99839.75
2017-08-16T22:54:36.325Z,99843.41
2017-08-16T22:57:04.140Z,99853.39
2017-08-16T22:59:32.106Z,99848.55
2017-08-16T23:01:59.918Z,99850.34
2017-08-16T23:04:27.890Z,99845.91
2017-08-16T23:06:55.732Z,99843.77
2017-08-16T23:09:23.418Z,99840.70
2017-08-16T23:11:51.144Z,99837.90
2017-08-16T23:14:19.108Z,99836.23
2017-08-16T23:16:46.875Z,99836.25
2017-08-16T23:19:14.842Z,99837.09
2017-08-16T23:21:42.607Z,99831.75
2017-08-16T23:24:10.405Z,99835.98
2017-08-16T23:26:38.282Z,99834.78
2017-08-16T23:29:06.037Z,99836.27
2017-08-16T23:31:33.798Z,99830.61
2017-08-16T23:34:01.744Z,99829.67
2017-08-16T23:36:29.711Z,99833.20
2017-08-16T23:38:57.404Z,99830.50
2017-08-16T23:41:25.244Z,99824.84
2017-08-16T23:43:53.145Z,99829.20
2017-08-16T23:46:21.104Z,99831.22
2017-08-16T23:48:48.883Z,99822.58
2017-08-16T23:51:16.543Z,99823.11
2017-08-16T23:53:44.457Z,99818.59
2017-08-16T23:56:12.419Z,99819.00
2017-08-16T23:58:40.016Z,99826.56
